DAUB

Details ICAO DAUB (BSK)
Name BISKRA
Region Algeria
Timezone Africa/Algiers (UTC+1.0)
Plans Departing 21
Arriving 18
Stats Elevation 289 ft / 88 m (AMSL)
Location 34.793366° 5.738308°
Runways 1
Magnetic Variation 1.547° E
Sunrise 2018-05-23 04:30:17 UTC / 2018-05-23 05:30:17 Local
Sunset 2018-05-23 18:40:09 UTC / 2018-05-23 19:40:09 Local
Advertisement - Login to hide

Runways

ID Width Length Bearing (true) Bearing (mag) Surface Threshold Offset Overrun Length
13 148 ft / 45 m 9,468 ft / 2,886 m 129.67° 128.12° Asphalt 0 ft / 0 m 678 ft / 207 m
31 148 ft / 45 m 9,468 ft / 2,886 m 309.69° 308.14° Asphalt 0 ft / 0 m 678 ft / 207 m

Map

Weather


0- 5 10 15 20 25 30 35+ Temperature / ° C

Clouds and Precipitation
Forecast for 2018-05-23 12:00 UTC. Updated 24 minutes ago

Ground ~20,000 ft ~40,000 ft Winds

METAR

DAUB 230900Z 12008KT 8000 FEW040 24/18 Q1019

TAF

TAF DAUB 230500Z 2306/2406 23010KT 9999 FEW033 SCT040 BECMG 2310/2312 14014KT TEMPO 2312/2320 FEW033CB BECMG 2320/2322 06006KT
Warning: Do not use this data for real-world aviation or navigation. No guarantee of current accuracy is given.